Time;durP1;ratioP1;P1;durP2;ratioP2;P2;SDS_P1;SDS_P2;PMS_P1;PMS_P2;Temp;Humidity;BMP_temperature;BMP_pressure;BME280_temperature;BME280_humidity;BME280_pressure;Samples;Min_cycle;Max_cycle;Signal;HPM_P1;HPM_P2
2023/01/19 00:01:37;;;;;;;26.25;24.25;;;;;;;;;;5099143;28;20235;-86
2023/01/19 00:04:04;;;;;;;27.00;25.00;;;;;;;;;;5100331;28;20196;-85
2023/01/19 00:06:31;;;;;;;27.42;25.52;;;;;;;;;;5102677;28;20209;-85
2023/01/19 00:08:59;;;;;;;28.15;25.73;;;;;;;;;;5100567;28;20680;-84
2023/01/19 00:11:26;;;;;;;26.02;24.25;;;;;;;;;;5101457;28;20202;-85
2023/01/19 00:13:53;;;;;;;26.35;24.45;;;;;;;;;;5100245;28;20203;-85
2023/01/19 00:16:21;;;;;;;27.25;25.45;;;;;;;;;;5098781;28;20284;-86
2023/01/19 00:18:50;;;;;;;27.60;25.27;;;;;;;;;;5099530;28;20200;-85
2023/01/19 00:21:17;;;;;;;27.75;25.70;;;;;;;;;;5099642;28;20226;-86
2023/01/19 00:23:47;;;;;;;27.50;25.60;;;;;;;;;;5100181;28;20224;-85
2023/01/19 00:26:15;;;;;;;24.08;22.52;;;;;;;;;;5100246;28;20616;-86
2023/01/19 00:28:42;;;;;;;26.48;24.40;;;;;;;;;;5100200;28;20253;-85
2023/01/19 00:31:09;;;;;;;26.95;25.05;;;;;;;;;;5099451;28;20210;-85
2023/01/19 00:33:36;;;;;;;26.75;24.83;;;;;;;;;;5101151;28;20208;-85
2023/01/19 00:36:05;;;;;;;27.73;25.75;;;;;;;;;;5099435;28;20715;-85
2023/01/19 00:38:32;;;;;;;26.83;24.70;;;;;;;;;;5099942;28;20196;-85
2023/01/19 00:40:59;;;;;;;28.75;26.65;;;;;;;;;;5099648;28;20208;-86
2023/01/19 00:43:25;;;;;;;24.17;22.58;;;;;;;;;;5099532;28;20205;-85
2023/01/19 00:45:52;;;;;;;27.15;25.25;;;;;;;;;;5099636;28;20223;-85
2023/01/19 00:48:19;;;;;;;28.55;26.52;;;;;;;;;;5103252;28;20270;-85
2023/01/19 00:50:46;;;;;;;23.92;22.42;;;;;;;;;;5099462;28;20273;-85
2023/01/19 00:53:14;;;;;;;28.33;26.13;;;;;;;;;;5098903;28;20615;-85
2023/01/19 00:55:41;;;;;;;27.75;25.45;;;;;;;;;;5098866;28;20224;-85
2023/01/19 00:58:08;;;;;;;26.40;24.63;;;;;;;;;;5098230;28;20213;-85
2023/01/19 01:00:35;;;;;;;26.55;24.73;;;;;;;;;;5099458;28;20203;-85
2023/01/19 01:03:02;;;;;;;25.42;23.55;;;;;;;;;;5098704;28;20218;-86
2023/01/19 01:05:29;;;;;;;25.58;23.88;;;;;;;;;;5099774;28;20277;-85
2023/01/19 01:07:56;;;;;;;28.27;26.23;;;;;;;;;;5099062;28;20266;-85
2023/01/19 01:10:27;;;;;;;25.35;23.25;;;;;;;;;;5099474;28;20307;-85
2023/01/19 01:12:54;;;;;;;27.73;25.73;;;;;;;;;;5098561;28;20180;-86
2023/01/19 01:15:22;;;;;;;27.52;25.63;;;;;;;;;;5098886;28;20223;-86
2023/01/19 01:17:51;;;;;;;26.92;24.88;;;;;;;;;;5099187;28;20201;-85
2023/01/19 01:20:20;;;;;;;27.75;25.75;;;;;;;;;;5099153;28;20214;-85
2023/01/19 01:22:48;;;;;;;26.85;24.95;;;;;;;;;;5097976;28;20241;-85
2023/01/19 01:25:16;;;;;;;28.30;26.40;;;;;;;;;;5099821;28;20223;-85
2023/01/19 01:27:44;;;;;;;27.48;25.38;;;;;;;;;;5099456;28;20225;-85
2023/01/19 01:30:12;;;;;;;27.75;25.45;;;;;;;;;;5098817;28;20230;-85
2023/01/19 01:32:40;;;;;;;27.23;24.98;;;;;;;;;;5099019;28;20199;-85
2023/01/19 01:35:08;;;;;;;28.23;26.02;;;;;;;;;;5098654;28;20223;-85
2023/01/19 01:37:35;;;;;;;30.10;27.50;;;;;;;;;;5098380;28;20196;-85
2023/01/19 01:40:02;;;;;;;27.13;24.73;;;;;;;;;;5098830;28;20215;-86
2023/01/19 01:42:30;;;;;;;29.20;26.65;;;;;;;;;;5106089;28;20197;-85
2023/01/19 01:44:59;;;;;;;28.92;26.63;;;;;;;;;;5098517;28;20710;-85
2023/01/19 01:47:29;;;;;;;27.13;25.13;;;;;;;;;;5098928;28;20250;-85
2023/01/19 01:49:59;;;;;;;26.50;24.50;;;;;;;;;;5099923;28;20204;-85
2023/01/19 01:52:27;;;;;;;27.70;25.52;;;;;;;;;;5097331;28;20259;-85
2023/01/19 01:54:54;;;;;;;25.90;24.10;;;;;;;;;;5098931;28;20596;-86
2023/01/19 01:57:22;;;;;;;28.70;26.60;;;;;;;;;;5098280;28;20685;-85
2023/01/19 01:59:50;;;;;;;28.25;26.25;;;;;;;;;;5098923;28;20191;-85
2023/01/19 02:05:06;;;;;;;25.83;23.42;;;;;;;;;;5098450;28;20580;-86
2023/01/19 02:13:18;;;;;;;28.75;26.75;;;;;;;;;;5097952;28;20313;-85
2023/01/19 02:15:45;;;;;;;27.58;25.35;;;;;;;;;;5098776;28;20322;-86
2023/01/19 02:18:13;;;;;;;27.50;25.42;;;;;;;;;;5098169;28;20200;-85
2023/01/19 02:20:42;;;;;;;28.98;26.70;;;;;;;;;;5098773;28;20377;-85
2023/01/19 02:23:14;;;;;;;26.88;24.70;;;;;;;;;;5097169;28;20234;-85
2023/01/19 02:25:43;;;;;;;27.30;25.30;;;;;;;;;;5098499;28;20225;-85
2023/01/19 02:28:10;;;;;;;28.08;25.88;;;;;;;;;;5098989;28;20214;-85
2023/01/19 02:30:39;;;;;;;25.40;23.75;;;;;;;;;;5099169;28;20197;-86
2023/01/19 02:33:07;;;;;;;26.58;24.58;;;;;;;;;;5097270;28;20277;-85
2023/01/19 02:35:34;;;;;;;24.58;22.98;;;;;;;;;;5103322;28;20242;-85
2023/01/19 02:38:02;;;;;;;23.10;21.80;;;;;;;;;;5102893;28;20213;-86
2023/01/19 02:40:29;;;;;;;24.92;23.23;;;;;;;;;;5102642;28;20250;-85
2023/01/19 02:42:59;;;;;;;28.00;26.10;;;;;;;;;;5101238;28;20277;-85
2023/01/19 02:45:27;;;;;;;30.48;27.50;;;;;;;;;;5101897;28;20773;-86
2023/01/19 02:47:54;;;;;;;26.65;24.63;;;;;;;;;;5101770;28;20223;-86
2023/01/19 02:50:51;;;;;;;25.58;23.65;;;;;;;;;;5102562;28;20201;-85
2023/01/19 02:53:25;;;;;;;28.38;26.17;;;;;;;;;;5061048;28;20270;-85
2023/01/19 02:55:54;;;;;;;23.75;22.25;;;;;;;;;;5096262;28;20223;-84
2023/01/19 02:58:27;;;;;;;25.45;23.50;;;;;;;;;;5105040;28;20230;-84
2023/01/19 03:00:58;;;;;;;29.73;27.33;;;;;;;;;;5104202;28;20192;-85
2023/01/19 03:03:29;;;;;;;29.35;27.15;;;;;;;;;;5103843;28;20214;-85
2023/01/19 03:06:00;;;;;;;29.75;27.50;;;;;;;;;;5104916;28;20246;-85
2023/01/19 03:08:31;;;;;;;28.42;26.25;;;;;;;;;;5105469;28;20254;-85
2023/01/19 03:11:01;;;;;;;27.38;25.40;;;;;;;;;;5105411;28;20202;-85
2023/01/19 03:13:33;;;;;;;25.33;23.50;;;;;;;;;;5104344;28;20199;-85
2023/01/19 03:16:04;;;;;;;26.63;24.73;;;;;;;;;;5104352;28;20231;-85
2023/01/19 03:18:32;;;;;;;29.05;26.83;;;;;;;;;;5105002;28;20193;-85
2023/01/19 03:21:01;;;;;;;22.58;20.98;;;;;;;;;;5104642;28;20262;-85
2023/01/19 03:23:31;;;;;;;25.73;23.83;;;;;;;;;;5104184;28;20262;-85
2023/01/19 03:26:00;;;;;;;27.10;25.20;;;;;;;;;;5104084;28;20232;-85
2023/01/19 03:28:28;;;;;;;23.77;22.38;;;;;;;;;;5104491;28;20192;-85
2023/01/19 03:30:59;;;;;;;23.25;21.88;;;;;;;;;;5103808;28;20218;-85
2023/01/19 03:33:28;;;;;;;27.02;24.80;;;;;;;;;;5103503;28;20643;-85
2023/01/19 03:36:00;;;;;;;25.80;23.75;;;;;;;;;;5102998;28;20255;-85
2023/01/19 03:38:27;;;;;;;26.67;24.42;;;;;;;;;;5104925;28;20184;-85
2023/01/19 03:40:56;;;;;;;28.95;26.55;;;;;;;;;;5105320;28;20258;-85
2023/01/19 03:43:24;;;;;;;26.13;24.33;;;;;;;;;;5111030;28;20193;-85
2023/01/19 03:45:51;;;;;;;24.50;22.92;;;;;;;;;;5115274;28;20263;-86
2023/01/19 03:48:20;;;;;;;24.90;23.30;;;;;;;;;;5115288;28;20237;-85
2023/01/19 03:50:48;;;;;;;25.63;23.63;;;;;;;;;;5105194;28;20303;-83
2023/01/19 03:53:16;;;;;;;26.83;25.08;;;;;;;;;;5104138;28;20208;-85
2023/01/19 03:55:46;;;;;;;27.65;25.67;;;;;;;;;;5104735;28;20226;-84
2023/01/19 03:58:13;;;;;;;25.60;23.92;;;;;;;;;;5104173;28;20265;-85
2023/01/19 04:00:40;;;;;;;25.85;23.80;;;;;;;;;;5104173;28;20262;-84
2023/01/19 04:03:12;;;;;;;21.80;20.70;;;;;;;;;;5105793;28;20193;-85
2023/01/19 04:05:40;;;;;;;23.23;21.83;;;;;;;;;;5101422;28;20278;-85
2023/01/19 04:08:07;;;;;;;22.02;20.83;;;;;;;;;;5102405;28;20208;-85
2023/01/19 04:10:34;;;;;;;25.88;23.92;;;;;;;;;;5103260;28;20208;-84
2023/01/19 04:13:02;;;;;;;27.70;25.70;;;;;;;;;;5103069;28;20249;-84
2023/01/19 04:15:29;;;;;;;29.30;26.95;;;;;;;;;;5103380;28;20220;-84
2023/01/19 04:17:58;;;;;;;27.38;25.35;;;;;;;;;;5103882;28;20223;-84
2023/01/19 04:20:25;;;;;;;22.85;21.58;;;;;;;;;;5104436;28;20284;-84
2023/01/19 04:22:54;;;;;;;24.88;23.33;;;;;;;;;;5102327;28;20215;-84
2023/01/19 04:25:27;;;;;;;27.25;25.35;;;;;;;;;;5103250;28;20296;-84
2023/01/19 04:27:54;;;;;;;28.52;26.15;;;;;;;;;;5104295;28;20235;-84
2023/01/19 04:30:21;;;;;;;28.30;26.00;;;;;;;;;;5104234;28;20272;-84
2023/01/19 04:32:48;;;;;;;24.17;22.67;;;;;;;;;;5102623;28;20291;-84
2023/01/19 04:35:16;;;;;;;26.90;25.20;;;;;;;;;;5102729;28;20225;-84
2023/01/19 04:37:43;;;;;;;24.10;22.70;;;;;;;;;;5102908;28;20311;-84
2023/01/19 04:40:12;;;;;;;25.58;23.77;;;;;;;;;;5102835;28;20274;-84
2023/01/19 04:42:39;;;;;;;24.63;23.08;;;;;;;;;;5102858;28;20199;-84
2023/01/19 04:45:07;;;;;;;25.83;24.13;;;;;;;;;;5101935;28;20246;-84
2023/01/19 04:47:34;;;;;;;24.48;22.83;;;;;;;;;;5102360;28;20215;-84
2023/01/19 04:50:01;;;;;;;24.35;22.70;;;;;;;;;;5102073;28;20199;-84
2023/01/19 04:52:33;;;;;;;26.65;24.92;;;;;;;;;;5102687;28;20200;-85
2023/01/19 04:55:00;;;;;;;25.63;23.92;;;;;;;;;;5102044;28;20224;-85
2023/01/19 04:57:29;;;;;;;26.42;24.63;;;;;;;;;;5102312;28;20685;-84
2023/01/19 04:59:57;;;;;;;22.65;21.35;;;;;;;;;;5102518;28;20207;-84
2023/01/19 05:02:23;;;;;;;28.27;26.27;;;;;;;;;;5101835;28;20237;-84
2023/01/19 05:04:51;;;;;;;27.20;25.20;;;;;;;;;;5102287;28;20224;-84
2023/01/19 05:07:18;;;;;;;23.02;21.65;;;;;;;;;;5101958;28;20180;-84
2023/01/19 05:09:45;;;;;;;22.40;21.00;;;;;;;;;;5102796;28;20208;-84
2023/01/19 05:12:12;;;;;;;24.40;22.58;;;;;;;;;;5101947;28;20205;-84
2023/01/19 05:14:40;;;;;;;26.25;24.15;;;;;;;;;;5101630;28;20224;-84
2023/01/19 05:17:07;;;;;;;24.13;22.33;;;;;;;;;;5102682;28;20221;-84
2023/01/19 05:19:34;;;;;;;24.83;22.77;;;;;;;;;;5102450;28;20258;-85
2023/01/19 05:22:02;;;;;;;23.02;21.63;;;;;;;;;;5101149;28;20217;-84
2023/01/19 05:24:29;;;;;;;23.25;21.75;;;;;;;;;;5101563;28;20226;-84
2023/01/19 05:26:56;;;;;;;22.98;21.35;;;;;;;;;;5103325;28;20205;-85
2023/01/19 05:29:23;;;;;;;22.15;20.85;;;;;;;;;;5102539;28;20257;-85
2023/01/19 05:31:52;;;;;;;24.23;22.52;;;;;;;;;;5100821;28;20239;-85
2023/01/19 05:34:19;;;;;;;23.05;21.65;;;;;;;;;;5101881;28;20247;-85
2023/01/19 05:36:47;;;;;;;27.35;25.05;;;;;;;;;;5103641;28;20217;-85
2023/01/19 05:39:14;;;;;;;26.77;24.30;;;;;;;;;;5103329;28;20230;-85
2023/01/19 05:41:43;;;;;;;24.38;22.70;;;;;;;;;;5100977;28;20674;-85
2023/01/19 05:44:10;;;;;;;26.00;24.20;;;;;;;;;;5102320;28;20215;-86
2023/01/19 05:46:37;;;;;;;21.92;20.63;;;;;;;;;;5100281;28;20209;-85
2023/01/19 05:49:06;;;;;;;23.40;21.95;;;;;;;;;;5099391;28;20264;-86
2023/01/19 05:51:36;;;;;;;21.15;20.05;;;;;;;;;;5098272;28;20224;-85
2023/01/19 05:54:03;;;;;;;24.58;22.90;;;;;;;;;;5099586;28;20187;-87
2023/01/19 05:56:31;;;;;;;20.75;19.65;;;;;;;;;;5100959;28;20201;-85
2023/01/19 05:58:58;;;;;;;26.90;24.65;;;;;;;;;;5101675;28;20202;-85
2023/01/19 06:01:26;;;;;;;27.05;25.15;;;;;;;;;;5100087;28;20227;-86
2023/01/19 06:03:53;;;;;;;22.25;20.98;;;;;;;;;;5099859;28;20722;-86
2023/01/19 06:06:21;;;;;;;23.42;22.13;;;;;;;;;;5100415;28;20258;-85
2023/01/19 06:08:48;;;;;;;27.70;25.70;;;;;;;;;;5103500;28;20204;-86
2023/01/19 06:11:15;;;;;;;24.23;22.63;;;;;;;;;;5104413;28;20204;-86
2023/01/19 06:13:42;;;;;;;26.67;24.38;;;;;;;;;;5104100;28;20621;-85
2023/01/19 06:16:10;;;;;;;24.33;22.67;;;;;;;;;;5104188;28;20271;-85
2023/01/19 06:18:37;;;;;;;21.35;19.88;;;;;;;;;;5104382;28;20225;-85
2023/01/19 06:21:05;;;;;;;23.95;22.40;;;;;;;;;;5103497;28;20197;-85
2023/01/19 06:23:34;;;;;;;23.75;22.10;;;;;;;;;;5102647;28;20208;-86
2023/01/19 06:26:01;;;;;;;26.85;24.95;;;;;;;;;;5103281;28;20220;-85
2023/01/19 06:28:29;;;;;;;24.67;22.92;;;;;;;;;;5103647;28;20201;-85
2023/01/19 06:30:56;;;;;;;22.15;20.85;;;;;;;;;;5103626;28;20232;-85
2023/01/19 06:33:23;;;;;;;26.67;24.88;;;;;;;;;;5103333;28;20207;-85
2023/01/19 06:35:51;;;;;;;21.83;20.58;;;;;;;;;;5103096;28;20226;-86
2023/01/19 06:38:18;;;;;;;23.77;22.25;;;;;;;;;;5102946;28;20216;-85
2023/01/19 06:40:52;;;;;;;23.52;22.15;;;;;;;;;;5102946;28;20258;-86
2023/01/19 06:43:20;;;;;;;25.15;23.52;;;;;;;;;;5102864;28;20258;-86
2023/01/19 06:45:47;;;;;;;25.67;24.15;;;;;;;;;;5102892;28;20235;-86
2023/01/19 06:48:14;;;;;;;27.70;25.85;;;;;;;;;;5102693;28;20205;-86
2023/01/19 06:50:41;;;;;;;30.52;28.48;;;;;;;;;;5103124;28;20206;-86
2023/01/19 06:53:08;;;;;;;24.70;23.15;;;;;;;;;;5101130;28;20541;-86
2023/01/19 06:55:35;;;;;;;26.20;24.60;;;;;;;;;;5100920;28;20250;-87
2023/01/19 06:58:04;;;;;;;29.75;27.65;;;;;;;;;;5102101;28;20217;-86
2023/01/19 07:00:31;;;;;;;27.80;25.88;;;;;;;;;;5102013;28;20250;-87
2023/01/19 07:02:58;;;;;;;26.35;24.73;;;;;;;;;;5101795;28;20212;-86
2023/01/19 07:05:25;;;;;;;26.05;24.65;;;;;;;;;;5101811;28;20592;-86
2023/01/19 07:07:52;;;;;;;24.77;23.58;;;;;;;;;;5101563;28;20254;-86
2023/01/19 07:10:19;;;;;;;32.00;30.35;;;;;;;;;;5101927;28;20199;-87
2023/01/19 07:12:46;;;;;;;32.97;31.27;;;;;;;;;;5100801;28;20208;-88
2023/01/19 07:15:15;;;;;;;36.85;34.75;;;;;;;;;;5101018;28;20248;-87
2023/01/19 07:17:42;;;;;;;35.90;34.13;;;;;;;;;;5101077;28;20215;-86
2023/01/19 07:20:11;;;;;;;40.90;38.45;;;;;;;;;;5101093;28;20234;-86
2023/01/19 07:22:38;;;;;;;45.53;42.63;;;;;;;;;;5100538;28;20218;-86
2023/01/19 07:25:06;;;;;;;54.90;51.63;;;;;;;;;;5100212;28;20220;-87
2023/01/19 07:27:33;;;;;;;50.40;47.65;;;;;;;;;;5101757;28;20201;-87
2023/01/19 07:30:00;;;;;;;51.28;48.53;;;;;;;;;;5101416;28;20238;-87
2023/01/19 07:32:29;;;;;;;53.90;50.40;;;;;;;;;;5100138;28;20556;-88
2023/01/19 07:35:02;;;;;;;55.42;51.47;;;;;;;;;;5102208;28;20223;-88
2023/01/19 07:37:29;;;;;;;57.25;53.45;;;;;;;;;;5101637;28;20249;-87
2023/01/19 07:39:56;;;;;;;55.70;52.25;;;;;;;;;;5101957;28;20221;-87
2023/01/19 07:42:23;;;;;;;59.47;55.97;;;;;;;;;;5101761;28;20225;-87
2023/01/19 07:44:59;;;;;;;55.10;52.20;;;;;;;;;;5102399;28;20233;-87
2023/01/19 07:47:27;;;;;;;59.17;55.88;;;;;;;;;;5101576;28;20294;-87
2023/01/19 07:49:55;;;;;;;55.03;51.83;;;;;;;;;;5100726;28;20197;-86
2023/01/19 07:52:22;;;;;;;46.75;44.25;;;;;;;;;;5099102;28;20209;-86
2023/01/19 07:54:50;;;;;;;51.22;48.30;;;;;;;;;;5099940;28;20708;-86
2023/01/19 07:57:18;;;;;;;46.60;43.95;;;;;;;;;;5099975;28;20209;-86
2023/01/19 07:59:45;;;;;;;52.22;49.15;;;;;;;;;;5103109;28;20235;-86
2023/01/19 08:02:12;;;;;;;50.40;47.50;;;;;;;;;;5101821;28;20227;-87
2023/01/19 08:04:39;;;;;;;50.05;46.95;;;;;;;;;;5102335;28;20228;-87
2023/01/19 08:07:08;;;;;;;51.42;48.47;;;;;;;;;;5101776;28;20204;-87
2023/01/19 08:09:35;;;;;;;49.05;46.15;;;;;;;;;;5109765;28;20264;-87
2023/01/19 08:12:02;;;;;;;46.58;43.83;;;;;;;;;;5117624;28;20230;-86
2023/01/19 08:14:29;;;;;;;49.17;45.88;;;;;;;;;;5118090;28;20215;-86
2023/01/19 08:16:59;;;;;;;50.40;47.30;;;;;;;;;;5104512;28;20228;-86
2023/01/19 08:19:26;;;;;;;49.75;46.95;;;;;;;;;;5102812;28;20209;-86
2023/01/19 08:21:54;;;;;;;49.85;46.33;;;;;;;;;;5102138;28;20235;-86
2023/01/19 08:24:24;;;;;;;51.58;48.45;;;;;;;;;;5101985;28;20565;-85
2023/01/19 08:26:51;;;;;;;45.45;42.97;;;;;;;;;;5101537;28;20189;-82
2023/01/19 08:29:18;;;;;;;53.00;49.80;;;;;;;;;;5098972;28;20213;-87
2023/01/19 08:31:45;;;;;;;47.30;44.40;;;;;;;;;;5097826;28;20204;-86
2023/01/19 08:34:12;;;;;;;51.67;48.38;;;;;;;;;;5099980;28;20204;-87
2023/01/19 08:36:39;;;;;;;45.50;43.13;;;;;;;;;;5099636;28;20727;-85
2023/01/19 08:39:06;;;;;;;48.50;46.00;;;;;;;;;;5100668;28;20579;-86
2023/01/19 08:41:35;;;;;;;47.50;44.95;;;;;;;;;;5100545;28;20204;-86
2023/01/19 08:44:02;;;;;;;47.40;44.80;;;;;;;;;;5098425;28;20257;-86
2023/01/19 08:46:28;;;;;;;50.78;47.55;;;;;;;;;;5100040;28;20616;-86
2023/01/19 08:48:55;;;;;;;52.78;48.88;;;;;;;;;;5100628;28;20243;-86
2023/01/19 08:51:22;;;;;;;53.75;50.00;;;;;;;;;;5098662;28;20202;-87
2023/01/19 08:53:50;;;;;;;52.55;49.28;;;;;;;;;;5100678;28;20201;-86
2023/01/19 08:56:17;;;;;;;54.78;51.38;;;;;;;;;;5099554;28;20226;-86
2023/01/19 08:58:45;;;;;;;52.13;48.92;;;;;;;;;;5099857;28;20232;-86
2023/01/19 09:01:15;;;;;;;54.70;51.30;;;;;;;;;;5099887;28;20208;-86
2023/01/19 09:03:42;;;;;;;52.47;49.50;;;;;;;;;;5099328;28;20211;-85
2023/01/19 09:06:10;;;;;;;54.72;51.40;;;;;;;;;;5099361;28;20228;-86
2023/01/19 09:08:37;;;;;;;50.13;47.50;;;;;;;;;;5099195;28;20199;-87
2023/01/19 09:11:06;;;;;;;51.17;48.38;;;;;;;;;;5096848;28;20203;-87
2023/01/19 09:13:33;;;;;;;59.75;56.00;;;;;;;;;;5096757;28;20754;-87
2023/01/19 09:16:06;;;;;;;61.10;56.40;;;;;;;;;;5098113;28;20339;-86
2023/01/19 09:18:33;;;;;;;63.10;58.13;;;;;;;;;;5098234;28;20237;-86
2023/01/19 09:21:01;;;;;;;63.85;59.67;;;;;;;;;;5097095;28;20197;-87
2023/01/19 09:23:28;;;;;;;56.95;53.35;;;;;;;;;;5096029;28;20203;-87
2023/01/19 09:25:57;;;;;;;62.20;58.03;;;;;;;;;;5094825;28;20223;-87
2023/01/19 09:28:24;;;;;;;62.42;58.05;;;;;;;;;;5096514;28;20669;-87
2023/01/19 09:30:51;;;;;;;61.20;57.15;;;;;;;;;;5095593;28;20209;-87
2023/01/19 09:33:20;;;;;;;59.90;56.15;;;;;;;;;;5094671;28;20289;-88
2023/01/19 09:35:47;;;;;;;64.05;59.92;;;;;;;;;;5095282;28;20631;-88
2023/01/19 09:38:15;;;;;;;67.20;62.55;;;;;;;;;;5096181;28;20261;-88
2023/01/19 09:40:43;;;;;;;59.78;56.08;;;;;;;;;;5096308;28;20199;-87
2023/01/19 09:43:14;;;;;;;57.95;54.25;;;;;;;;;;5097399;28;20218;-87
2023/01/19 09:45:46;;;;;;;58.90;55.05;;;;;;;;;;5099109;28;20227;-87
2023/01/19 09:48:29;;;;;;;63.90;59.70;;;;;;;;;;5099736;28;20275;-86
2023/01/19 09:51:00;;;;;;;70.47;65.70;;;;;;;;;;5099401;28;20188;-87
2023/01/19 09:53:32;;;;;;;53.17;50.55;;;;;;;;;;5099919;28;20201;-87
2023/01/19 09:55:59;;;;;;;60.75;56.83;;;;;;;;;;5100296;28;20241;-86
2023/01/19 09:58:26;;;;;;;64.30;59.70;;;;;;;;;;5100897;28;20858;-86
2023/01/19 10:00:56;;;;;;;62.10;58.17;;;;;;;;;;5101319;28;20269;-86
2023/01/19 10:03:24;;;;;;;60.67;56.83;;;;;;;;;;5100351;28;20195;-86
2023/01/19 10:05:53;;;;;;;60.53;56.65;;;;;;;;;;5100766;28;20228;-86
2023/01/19 10:08:23;;;;;;;58.83;55.28;;;;;;;;;;5101735;28;20276;-86
2023/01/19 10:10:53;;;;;;;64.30;60.00;;;;;;;;;;5101777;28;20199;-86
2023/01/19 10:13:30;;;;;;;66.10;62.13;;;;;;;;;;5099699;28;20211;-82
2023/01/19 10:16:02;;;;;;;62.83;58.42;;;;;;;;;;5099229;28;20238;-86
2023/01/19 10:18:42;;;;;;;65.50;60.40;;;;;;;;;;5101048;28;20212;-86
2023/01/19 10:21:11;;;;;;;62.78;58.22;;;;;;;;;;5100271;28;20204;-86
2023/01/19 10:23:42;;;;;;;66.90;62.40;;;;;;;;;;5098812;28;20208;-83
2023/01/19 10:26:10;;;;;;;66.57;61.97;;;;;;;;;;5098119;28;20248;-87
2023/01/19 10:28:38;;;;;;;67.68;62.72;;;;;;;;;;5095952;28;20212;-86
2023/01/19 10:31:08;;;;;;;65.00;60.20;;;;;;;;;;5097508;28;20204;-83
2023/01/19 10:33:35;;;;;;;71.10;65.40;;;;;;;;;;5097714;28;20255;-87
2023/01/19 10:36:05;;;;;;;67.57;63.28;;;;;;;;;;5093811;28;20220;-86
2023/01/19 10:38:34;;;;;;;66.70;61.85;;;;;;;;;;5097267;28;20206;-85
2023/01/19 10:41:05;;;;;;;66.68;62.13;;;;;;;;;;5094972;28;20209;-85
2023/01/19 10:43:36;;;;;;;65.68;61.58;;;;;;;;;;5095808;28;20181;-87
2023/01/19 10:46:05;;;;;;;67.03;62.58;;;;;;;;;;5095254;28;20709;-85
2023/01/19 10:48:37;;;;;;;69.25;64.43;;;;;;;;;;5096175;28;20618;-87
2023/01/19 10:51:13;;;;;;;68.75;63.97;;;;;;;;;;5093945;28;20196;-88
2023/01/19 10:53:41;;;;;;;72.05;67.15;;;;;;;;;;5094404;28;20196;-88
2023/01/19 10:56:14;;;;;;;68.40;63.92;;;;;;;;;;5097164;28;20229;-88
2023/01/19 10:58:41;;;;;;;63.75;59.50;;;;;;;;;;5098070;28;20213;-87
2023/01/19 11:01:19;;;;;;;68.45;63.95;;;;;;;;;;5097966;28;20672;-87
2023/01/19 11:03:46;;;;;;;67.05;62.28;;;;;;;;;;5098574;28;20203;-87
2023/01/19 11:06:20;;;;;;;62.70;58.90;;;;;;;;;;5097694;28;20278;-87
2023/01/19 11:08:49;;;;;;;61.22;57.85;;;;;;;;;;5097956;28;20275;-87
2023/01/19 11:11:18;;;;;;;63.45;59.70;;;;;;;;;;5097665;28;20250;-88
2023/01/19 11:13:45;;;;;;;63.65;59.72;;;;;;;;;;5099323;28;20282;-88
2023/01/19 11:16:17;;;;;;;64.43;60.55;;;;;;;;;;5098098;28;20229;-88
2023/01/19 11:18:46;;;;;;;67.50;63.10;;;;;;;;;;5100832;28;20202;-87
2023/01/19 11:21:14;;;;;;;68.13;63.15;;;;;;;;;;5101502;28;20239;-88
2023/01/19 11:23:41;;;;;;;67.60;62.95;;;;;;;;;;5099198;28;20200;-88
2023/01/19 11:26:09;;;;;;;67.72;63.30;;;;;;;;;;5099360;28;20598;-85
2023/01/19 11:28:40;;;;;;;65.70;61.50;;;;;;;;;;5100144;28;20202;-87
2023/01/19 11:31:17;;;;;;;67.75;63.25;;;;;;;;;;5099873;28;20208;-87
2023/01/19 11:33:48;;;;;;;68.50;63.63;;;;;;;;;;5099859;28;20604;-88
2023/01/19 11:36:17;;;;;;;67.07;62.55;;;;;;;;;;5099829;28;20265;-87
2023/01/19 11:38:45;;;;;;;65.53;60.90;;;;;;;;;;5101114;28;20310;-88
2023/01/19 11:41:17;;;;;;;64.55;60.15;;;;;;;;;;5104739;28;20201;-88
2023/01/19 11:43:46;;;;;;;67.35;62.70;;;;;;;;;;5105550;28;20687;-88
2023/01/19 11:46:13;;;;;;;64.18;59.97;;;;;;;;;;5105576;28;20219;-87
2023/01/19 11:48:43;;;;;;;68.28;63.80;;;;;;;;;;5105036;28;20574;-88
2023/01/19 11:51:13;;;;;;;69.38;64.80;;;;;;;;;;5104816;28;20286;-87
2023/01/19 11:53:41;;;;;;;65.50;61.90;;;;;;;;;;5103470;28;20220;-88
2023/01/19 11:56:09;;;;;;;71.63;65.55;;;;;;;;;;5104184;28;20253;-88
2023/01/19 11:58:38;;;;;;;64.95;61.33;;;;;;;;;;5104044;28;20200;-87
2023/01/19 12:01:07;;;;;;;66.35;62.00;;;;;;;;;;5104497;28;20222;-88
2023/01/19 12:03:37;;;;;;;70.07;65.35;;;;;;;;;;5104118;28;20219;-88
2023/01/19 12:06:06;;;;;;;66.13;61.78;;;;;;;;;;5103956;28;20248;-87
2023/01/19 12:08:36;;;;;;;65.07;60.95;;;;;;;;;;5103871;28;20218;-88
2023/01/19 12:11:04;;;;;;;64.45;60.88;;;;;;;;;;5103724;28;20205;-88
2023/01/19 12:13:32;;;;;;;68.57;63.95;;;;;;;;;;5103258;28;20203;-87
2023/01/19 12:16:01;;;;;;;69.95;65.10;;;;;;;;;;5102466;28;20394;-87
2023/01/19 12:18:32;;;;;;;67.55;62.63;;;;;;;;;;5103287;28;20212;-86
2023/01/19 12:20:59;;;;;;;65.57;61.20;;;;;;;;;;5103399;28;20251;-87
2023/01/19 12:23:33;;;;;;;69.28;65.03;;;;;;;;;;5103159;28;20658;-88
2023/01/19 12:26:04;;;;;;;65.97;61.03;;;;;;;;;;5103264;28;20236;-89
2023/01/19 12:28:33;;;;;;;70.22;65.38;;;;;;;;;;5103203;28;20604;-87
2023/01/19 12:31:01;;;;;;;62.13;58.15;;;;;;;;;;5103667;28;20279;-87
2023/01/19 12:33:34;;;;;;;62.38;58.03;;;;;;;;;;5102652;28;20242;-87
2023/01/19 12:36:02;;;;;;;67.28;62.67;;;;;;;;;;5105424;28;20229;-87
2023/01/19 12:38:40;;;;;;;67.63;63.03;;;;;;;;;;5108246;28;20220;-88
2023/01/19 12:41:17;;;;;;;68.75;63.53;;;;;;;;;;5105477;28;20212;-87
2023/01/19 12:43:44;;;;;;;62.50;58.40;;;;;;;;;;5101444;28;20204;-87
2023/01/19 12:46:21;;;;;;;61.85;57.47;;;;;;;;;;5098860;28;20232;-87
2023/01/19 12:48:49;;;;;;;62.72;58.78;;;;;;;;;;5103017;28;20208;-88
2023/01/19 12:51:23;;;;;;;69.63;64.47;;;;;;;;;;5102727;28;20620;-88
2023/01/19 12:53:53;;;;;;;66.90;62.10;;;;;;;;;;5103042;28;20192;-87
2023/01/19 12:56:21;;;;;;;72.68;67.25;;;;;;;;;;5102584;28;20219;-87
2023/01/19 12:58:49;;;;;;;65.65;61.50;;;;;;;;;;5102043;28;20213;-88
2023/01/19 13:01:19;;;;;;;69.35;64.75;;;;;;;;;;5101927;28;20319;-88
2023/01/19 13:03:58;;;;;;;64.88;60.47;;;;;;;;;;5102273;28;20197;-88
2023/01/19 13:06:40;;;;;;;70.85;65.55;;;;;;;;;;5101197;28;20559;-87
2023/01/19 13:09:28;;;;;;;68.32;63.50;;;;;;;;;;5101698;28;20268;-88
2023/01/19 13:12:11;;;;;;;78.13;72.38;;;;;;;;;;5101198;28;20231;-87
2023/01/19 13:14:39;;;;;;;73.00;67.78;;;;;;;;;;5101231;28;20225;-88
2023/01/19 13:17:19;;;;;;;75.75;69.85;;;;;;;;;;5100776;28;20203;-88
2023/01/19 13:19:49;;;;;;;71.93;66.65;;;;;;;;;;5101914;28;20563;-87
2023/01/19 13:22:30;;;;;;;73.60;68.10;;;;;;;;;;5100479;28;20191;-86
2023/01/19 13:25:10;;;;;;;72.28;67.38;;;;;;;;;;5077731;28;20219;-88
2023/01/19 13:27:38;;;;;;;72.47;67.22;;;;;;;;;;5101569;28;20209;-88
2023/01/19 13:30:11;;;;;;;70.55;65.68;;;;;;;;;;5101570;28;20257;-87
2023/01/19 13:32:40;;;;;;;74.38;69.47;;;;;;;;;;5101206;28;20190;-88
2023/01/19 13:35:14;;;;;;;74.75;68.80;;;;;;;;;;5102079;28;20211;-88
2023/01/19 13:37:41;;;;;;;78.72;72.63;;;;;;;;;;5101976;28;20552;-88
2023/01/19 13:40:16;;;;;;;67.05;63.40;;;;;;;;;;5101449;28;20224;-88
2023/01/19 13:42:43;;;;;;;74.40;69.25;;;;;;;;;;5100403;28;20258;-88
2023/01/19 13:45:17;;;;;;;74.50;68.82;;;;;;;;;;5101109;28;20249;-88
2023/01/19 13:47:46;;;;;;;65.63;61.72;;;;;;;;;;5100619;28;20251;-88
2023/01/19 13:50:20;;;;;;;67.15;62.92;;;;;;;;;;5101142;28;20249;-88
2023/01/19 13:52:47;;;;;;;72.78;67.55;;;;;;;;;;5100179;28;20208;-88
2023/01/19 13:55:19;;;;;;;73.72;68.45;;;;;;;;;;5100274;28;20228;-88
2023/01/19 13:57:47;;;;;;;68.40;64.03;;;;;;;;;;5099409;28;20239;-88
2023/01/19 14:00:17;;;;;;;79.40;73.35;;;;;;;;;;5099871;28;20220;-88
2023/01/19 14:02:51;;;;;;;217.95;124.95;;;;;;;;;;5098638;28;20219;-88
2023/01/19 14:05:21;;;;;;;96.32;88.00;;;;;;;;;;5099529;28;20270;-88
2023/01/19 14:07:49;;;;;;;98.30;89.18;;;;;;;;;;5100071;28;20194;-88
2023/01/19 14:10:17;;;;;;;75.78;70.35;;;;;;;;;;5099160;28;20205;-87
2023/01/19 14:12:45;;;;;;;74.13;68.30;;;;;;;;;;5099209;28;20223;-88
2023/01/19 14:15:13;;;;;;;79.13;73.05;;;;;;;;;;5098649;28;20231;-88
2023/01/19 14:17:40;;;;;;;74.88;69.40;;;;;;;;;;5099202;28;20203;-88
2023/01/19 14:20:08;;;;;;;73.25;67.93;;;;;;;;;;5098960;28;20216;-88
2023/01/19 14:22:39;;;;;;;76.18;71.07;;;;;;;;;;5098455;28;20260;-88
2023/01/19 14:25:26;;;;;;;69.22;64.45;;;;;;;;;;5098228;28;20223;-88
2023/01/19 14:28:13;;;;;;;67.05;62.83;;;;;;;;;;5099528;28;20189;-88
2023/01/19 14:30:40;;;;;;;63.13;58.83;;;;;;;;;;5103926;28;20201;-88
2023/01/19 14:33:13;;;;;;;69.75;64.40;;;;;;;;;;5103068;28;20205;-88
2023/01/19 14:35:40;;;;;;;73.15;67.68;;;;;;;;;;5102585;28;20235;-88